Latest Coastal Weather Observations for Kingfish B

IDV60701

Issued at 7:02 pm EDT Sunday 22 January 2017 (issued every 10 minutes, with the page automatically refreshed every 10 minutes)

About coastal observations | Map of coastal stations | Coastal observations for VIC | Marine services | Other Formats
Station Details ID: 400139 Name: KINGFISH B (PLATFORM) Lat: -38.60 Lon: 148.19 Height: 31.4 m
Data from the previous 72 hours. | See also: Recent months for locations in Victoria
Date/Time
EDT
Temp
°C
Wind Pressure Rain since
9am
mm
Weather Cloud Vis
km
Sea
Height
m
Swell
Dir  Spd
kts
Gust
kts
hPa Trend Height
m
Period
s
Dir
22/07:00pm 18.8 ENE 4 7 1014.6 - - - - - - - - -
22/06:10pm 19.1 ENE 3 5 1015.1 - - - - - - - - -
22/06:00pm 19.1 ENE 3 5 1015.1 - - - - - - - - -
22/05:00pm 19.3 CALM 0 1 1015.6 - - - - - - - - -
22/04:00pm 19.9 CALM 0 2 1015.9 - - - - - - - - -
22/03:00pm 20.6 NNE 1 3 1016.3 - - - - - - - - -
22/02:00pm 20.5 NW 1 2 1016.8 - - - - - - - - -
22/01:00pm 21.6 NW 2 4 1016.9 - - - - - - - - -
22/12:10pm 22.9 NNW 3 4 1017.1 - - - - - - - - -
22/12:00pm 22.7 NW 2 3 1017.0 - - - - - - - - -
22/11:10am 22.0 NW 1 3 1017.2 - - - - - - - - -
22/11:00am 22.6 NW 1 2 1017.3 - - - - - - - - -
22/10:10am 24.9 NW 1 3 1017.2 - - - - - - - - -
22/10:00am 24.7 WNW 1 3 1017.0 - - - - - - - - -
22/09:00am 18.9 W 1 3 1016.6 - - - - - - - - -
22/08:00am 16.4 WNW 3 4 1016.4 - - - - - - - - -
22/07:00am 16.6 WNW 4 5 1015.8 - - - - - - - - -
22/06:00am 16.6 W 3 6 1015.5 - - - - - - - - -
22/05:00am 16.7 WSW 4 5 1015.6 - - - - - - - - -
22/04:00am 16.8 WSW 5 6 1015.8 - - - - - - - - -
22/03:00am 17.8 SW 5 7 1016.2 - - - - - - - - -
22/02:00am 17.1 SW 6 9 1016.5 - - - - - - - - -
22/01:10am 17.2 SW 9 11 1016.6 - - - - - - - - -
22/01:00am 17.1 SW 9 10 1016.7 - - - - - - - - -
22/12:10am 17.2 SW 9 11 1016.7 - - - - - - - - -
22/12:00am 17.2 SSW 10 12 1016.7 - - - - - - - - -
 
Date/Time
EDT
Temp
°C
Wind Pressure Rain since
9am
mm
Weather Cloud Vis
km
Sea
Height
m
Swell
Dir  Spd
kts
Gust
kts
hPa Trend Height
m
Period
s
Dir
21/10:10pm 17.6 SW 12 14 1015.7 - - - - - - - - -
21/10:00pm 17.6 SW 12 14 1015.6 - - - - - - - - -
21/09:10pm 17.7 SW 11 13 1015.2 - - - - - - - - -
21/09:00pm 17.7 SW 11 12 1015.1 - - - - - - - - -
21/08:10pm 17.6 SSW 12 14 1015.1 - - - - - - - - -
21/08:00pm 17.7 SW 12 15 1015.1 - - - - - - - - -
21/07:10pm 17.7 SW 14 17 1015.2 - - - - - - - - -
21/07:00pm 17.8 SW 14 17 1015.2 - - - - - - - - -
21/06:00pm 17.8 SW 15 18 1015.0 - - - - - - - - -
21/05:00pm 18.0 SW 17 20 1014.8 - - - - - - - - -
21/04:00pm 18.4 SW 20 23 1014.5 - - - - - - - - -
21/03:00pm 19.0 SW 21 24 1014.3 - - - - - - - - -
21/02:00pm 19.0 SW 21 25 1014.2 - - - - - - - - -
21/01:00pm 19.5 SW 23 27 1013.4 - - - - - - - - -
21/12:00pm 19.5 SW 22 26 1012.7 - - - - - - - - -
21/11:10am 17.8 SW 20 24 1012.2 - - - - - - - - -
21/11:00am 17.5 SW 19 26 1012.2 - - - - - - - - -
21/10:10am 16.9 SW 22 27 1011.3 - - - - - - - - -
21/10:00am 17.1 SW 23 28 1011.0 - - - - - - - - -
21/09:10am 16.4 SW 23 28 1010.0 - - - - - - - - -
21/09:00am 16.5 SW 24 28 1010.1 - - - - - - - - -
21/08:10am 16.3 SW 25 29 1008.7 - - - - - - - - -
21/08:00am 16.4 SW 25 29 1008.7 - - - - - - - - -
21/07:10am 16.5 SW 22 26 1008.0 - - - - - - - - -
21/07:00am 16.5 SW 21 26 1007.9 - - - - - - - - -
21/06:10am 16.6 SW 22 25 1006.9 - - - - - - - - -
21/06:00am 16.6 SW 22 26 1006.9 - - - - - - - - -
21/05:10am 16.7 SW 22 26 1006.7 - - - - - - - - -
21/05:00am 16.7 SW 23 27 1006.3 - - - - - - - - -
21/04:10am 17.1 SW 23 27 1006.1 - - - - - - - - -
21/04:00am 17.3 SW 24 27 1005.8 - - - - - - - - -
21/03:00am 17.0 SW 26 30 1005.4 - - - - - - - - -
21/02:00am 17.1 SW 26 31 1005.1 - - - - - - - - -
21/01:00am 17.2 SW 28 33 1004.5 - - - - - - - - -
21/12:00am 17.4 SW 29 34 1003.8 - - - - - - - - -
 
Date/Time
EDT
Temp
°C
Wind Pressure Rain since
9am
mm
Weather Cloud Vis
km
Sea
Height
m
Swell
Dir  Spd
kts
Gust
kts
hPa Trend Height
m
Period
s
Dir
20/11:00pm 17.6 SW 27 31 1002.8 - - - - - - - - -
20/10:00pm 18.1 SW 26 31 1002.0 - - - - - - - - -
20/09:00pm 17.7 SSW 35 42 1001.8 - - - - - - - - -
20/08:00pm 18.2 SW 32 38 998.3 - - - - - - - - -
20/07:10pm 18.5 SW 34 40 996.1 - - - - - - - - -
20/07:00pm 18.5 SW 34 41 995.9 - - - - - - - - -
20/06:10pm 18.8 SW 33 40 994.5 - - - - - - - - -
20/06:00pm 18.9 SW 36 47 993.9 - - - - - - - - -
20/05:10pm 19.6 WSW 39 50 992.6 - - - - - - - - -
20/05:00pm 19.4 WSW 40 51 992.3 - - - - - - - - -
20/04:10pm 19.6 WSW 42 52 991.3 - - - - - - - - -
20/04:00pm 19.8 WSW 37 48 991.4 - - - - - - - - -
20/03:10pm 20.8 WSW 27 32 991.5 - - - - - - - - -
20/03:00pm 20.9 WSW 28 35 991.2 - - - - - - - - -
20/02:10pm 20.7 WNW 13 18 991.7 - - - - - - - - -
20/02:00pm 20.0 WNW 13 19 991.7 - - - - - - - - -
20/01:10pm 19.2 NW 11 15 991.6 - - - - - - - - -
20/01:00pm 19.1 NW 9 15 991.8 - - - - - - - - -
20/12:10pm 19.0 NW 10 12 991.7 - - - - - - - - -
20/12:00pm 18.8 NW 9 11 991.6 - - - - - - - - -
20/11:00am 18.2 NNE 14 16 991.1 - - - - - - - - -
20/10:00am 18.2 N 11 13 993.9 - - - - - - - - -
20/09:00am 20.0 NW 5 6 995.6 - - - - - - - - -
20/08:00am 20.1 NNW 4 5 996.3 - - - - - - - - -
20/07:00am 19.8 NNE 10 12 996.3 - - - - - - - - -
20/06:00am 19.8 NE 23 27 996.0 - - - - - - - - -
20/05:00am 19.7 NE 25 29 997.5 - - - - - - - - -
20/04:00am 19.7 ENE 29 34 998.4 - - - - - - - - -
20/03:00am 19.7 NE 32 38 999.7 - - - - - - - - -
20/02:10am 19.7 ENE 30 35 1001.1 - - - - - - - - -
20/02:00am 19.6 ENE 32 40 1001.3 - - - - - - - - -
20/01:10am 19.6 ENE 27 34 1002.7 - - - - - - - - -
20/01:00am 19.5 ENE 27 33 1003.0 - - - - - - - - -
20/12:10am 19.4 ENE 27 35 1005.1 - - - - - - - - -
20/12:00am 19.4 ENE 27 36 1005.4 - - - - - - - - -
 
Date/Time
EDT
Temp
°C
Wind Pressure Rain since
9am
mm
Weather Cloud Vis
km
Sea
Height
m
Swell
Dir  Spd
kts
Gust
kts
hPa Trend Height
m
Period
s
Dir
19/11:10pm 19.2 ENE 29 39 1006.3 - - - - - - - - -
19/11:00pm 19.2 ENE 31 38 1006.4 - - - - - - - - -
19/10:10pm 19.1 ENE 31 39 1006.7 - - - - - - - - -
19/10:00pm 19.1 ENE 33 40 1006.7 - - - - - - - - -
19/09:10pm 19.1 ENE 31 37 1007.4 - - - - - - - - -
19/09:00pm 19.1 ENE 30 35 1007.6 - - - - - - - - -
19/08:10pm 19.1 ENE 31 36 1008.0 - - - - - - - - -
19/08:00pm 19.0 ENE 27 33 1008.1 - - - - - - - - -
19/07:10pm 18.9 ENE 28 35 1009.1 - - - - - - - - -

Other Formats:

Comma delimited format used in spreadsheet applications
http://www.bom.gov.au/fwo/IDV60701/IDV60701.55039.axf

JavaScript Object Notation format (JSON) in row-major order
http://www.bom.gov.au/fwo/IDV60701/IDV60701.55039.json